createdAt,value
2023-04-03T00:01:40.620Z,100.00
2023-04-03T00:04:09.675Z,100.00
2023-04-03T00:06:38.498Z,100.00
2023-04-03T00:09:10.594Z,100.00
2023-04-03T00:11:39.658Z,100.00
2023-04-03T00:14:08.531Z,100.00
2023-04-03T00:16:37.405Z,100.00
2023-04-03T00:19:08.552Z,100.00
2023-04-03T00:21:38.220Z,100.00
2023-04-03T00:24:07.726Z,100.00
2023-04-03T00:26:38.883Z,100.00
2023-04-03T00:29:07.493Z,100.00
2023-04-03T00:31:36.554Z,100.00
2023-04-03T00:34:05.085Z,100.00
2023-04-03T00:36:35.648Z,100.00
2023-04-03T00:39:07.174Z,100.00
2023-04-03T00:41:36.405Z,100.00
2023-04-03T00:44:23.714Z,100.00
2023-04-03T00:46:52.695Z,100.00
2023-04-03T00:49:21.312Z,100.00
2023-04-03T00:51:52.233Z,100.00
2023-04-03T00:54:20.997Z,100.00
2023-04-03T00:56:49.905Z,100.00
2023-04-03T00:59:23.312Z,100.00
2023-04-03T01:01:52.068Z,100.00
2023-04-03T01:04:29.962Z,100.00
2023-04-03T01:07:02.284Z,100.00
2023-04-03T01:09:31.434Z,100.00
2023-04-03T01:12:15.356Z,100.00
2023-04-03T01:14:44.945Z,100.00
2023-04-03T01:17:34.232Z,100.00
2023-04-03T01:20:36.268Z,100.00
2023-04-03T01:23:19.911Z,100.00
2023-04-03T01:25:49.926Z,100.00
2023-04-03T01:28:20.885Z,100.00
2023-04-03T01:30:52.991Z,100.00
2023-04-03T01:33:23.496Z,100.00
2023-04-03T01:35:52.555Z,100.00
2023-04-03T01:38:21.931Z,100.00
2023-04-03T01:40:50.639Z,100.00
2023-04-03T01:43:21.469Z,100.00
2023-04-03T01:45:50.533Z,100.00
2023-04-03T01:48:19.371Z,100.00
2023-04-03T01:50:49.210Z,100.00
2023-04-03T01:53:17.876Z,100.00
2023-04-03T01:55:46.414Z,100.00
2023-04-03T01:58:16.927Z,100.00
2023-04-03T02:00:45.779Z,100.00
2023-04-03T02:03:14.709Z,100.00
2023-04-03T02:05:43.612Z,100.00
2023-04-03T02:08:14.238Z,100.00
2023-04-03T02:10:42.966Z,100.00
2023-04-03T02:13:12.086Z,100.00
2023-04-03T02:15:41.042Z,100.00
2023-04-03T02:18:10.128Z,100.00
2023-04-03T02:20:38.650Z,100.00
2023-04-03T02:23:07.757Z,100.00
2023-04-03T02:25:38.941Z,100.00
2023-04-03T02:28:08.117Z,100.00
2023-04-03T02:30:36.963Z,100.00
2023-04-03T02:33:05.893Z,100.00
2023-04-03T02:35:34.462Z,100.00
2023-04-03T02:38:03.029Z,100.00
2023-04-03T02:40:31.370Z,100.00
2023-04-03T02:43:01.770Z,100.00
2023-04-03T02:45:30.434Z,100.00
2023-04-03T02:48:02.176Z,100.00
2023-04-03T02:50:33.390Z,100.00
2023-04-03T02:53:02.313Z,100.00
2023-04-03T02:55:31.277Z,100.00
2023-04-03T02:58:01.512Z,100.00
2023-04-03T03:00:30.067Z,100.00
2023-04-03T03:02:58.892Z,100.00
2023-04-03T03:05:27.745Z,100.00
2023-04-03T03:07:56.704Z,100.00
2023-04-03T03:10:26.562Z,100.00
2023-04-03T03:12:55.899Z,100.00
2023-04-03T03:15:25.675Z,100.00
2023-04-03T03:17:54.389Z,100.00
2023-04-03T03:20:23.386Z,100.00
2023-04-03T03:22:51.832Z,100.00
2023-04-03T03:25:20.644Z,100.00
2023-04-03T03:27:49.287Z,100.00
2023-04-03T03:30:18.305Z,100.00
2023-04-03T03:32:48.865Z,100.00
2023-04-03T03:35:17.537Z,100.00
2023-04-03T03:37:46.225Z,100.00
2023-04-03T03:40:15.289Z,100.00
2023-04-03T03:42:47.026Z,100.00
2023-04-03T03:45:15.795Z,100.00
2023-04-03T03:47:44.352Z,100.00
2023-04-03T03:50:14.396Z,100.00
2023-04-03T03:52:43.315Z,100.00
2023-04-03T03:55:11.840Z,100.00
2023-04-03T03:57:40.920Z,100.00
2023-04-03T04:00:10.592Z,100.00
2023-04-03T04:02:39.624Z,100.00
2023-04-03T04:05:08.936Z,100.00
2023-04-03T04:07:39.050Z,100.00
2023-04-03T04:10:09.049Z,100.00
2023-04-03T04:12:37.832Z,100.00
2023-04-03T04:15:07.168Z,99.78
2023-04-03T04:17:36.363Z,99.91
2023-04-03T04:20:06.246Z,100.00
2023-04-03T04:22:37.955Z,100.00
2023-04-03T04:25:08.347Z,99.93
2023-04-03T04:27:38.175Z,99.75
2023-04-03T04:30:08.010Z,99.47
2023-04-03T04:32:36.932Z,99.17
2023-04-03T04:35:06.936Z,99.85
2023-04-03T04:37:35.905Z,98.40
2023-04-03T04:40:04.744Z,99.00
2023-04-03T04:42:35.046Z,98.41
2023-04-03T04:45:04.079Z,98.86
2023-04-03T04:47:32.923Z,99.44
2023-04-03T04:50:01.311Z,98.86
2023-04-03T04:52:29.958Z,98.55
2023-04-03T04:54:58.344Z,97.93
2023-04-03T04:57:28.731Z,98.39
2023-04-03T04:59:58.671Z,97.52
2023-04-03T05:02:27.540Z,97.53
2023-04-03T05:04:56.135Z,97.56
2023-04-03T05:07:25.007Z,98.49
2023-04-03T05:09:53.586Z,98.46
2023-04-03T05:12:22.312Z,98.04
2023-04-03T05:14:50.983Z,97.58
2023-04-03T05:17:20.920Z,98.14
2023-04-03T05:19:49.351Z,99.11
2023-04-03T05:22:18.037Z,99.35
2023-04-03T05:24:46.479Z,98.73
2023-04-03T05:27:15.510Z,98.65
2023-04-03T05:29:45.342Z,98.90
2023-04-03T05:32:16.402Z,98.25
2023-04-03T05:34:46.360Z,95.60
2023-04-03T05:37:15.210Z,95.97
2023-04-03T05:39:44.162Z,95.69
2023-04-03T05:42:17.213Z,96.18
2023-04-03T05:44:47.998Z,97.20
2023-04-03T05:47:16.975Z,96.44
2023-04-03T05:49:49.875Z,96.21
2023-04-03T05:52:23.507Z,95.89
2023-04-03T05:54:52.269Z,95.28
2023-04-03T05:57:21.142Z,96.22
2023-04-03T05:59:52.117Z,96.24
2023-04-03T06:02:24.003Z,94.94
2023-04-03T06:04:54.153Z,94.84
2023-04-03T06:07:24.953Z,95.14
2023-04-03T06:09:53.645Z,95.55
2023-04-03T06:12:22.445Z,95.85
2023-04-03T06:14:51.348Z,95.34
2023-04-03T06:17:20.355Z,95.13
2023-04-03T06:19:51.796Z,94.75
2023-04-03T06:22:22.625Z,94.53
2023-04-03T06:24:51.319Z,94.92
2023-04-03T06:27:19.786Z,94.97
2023-04-03T06:29:49.269Z,94.34
2023-04-03T06:32:18.328Z,93.32
2023-04-03T06:34:47.508Z,93.53
2023-04-03T06:37:18.036Z,94.62
2023-04-03T06:39:48.473Z,94.44
2023-04-03T06:42:17.532Z,94.17
2023-04-03T06:44:46.563Z,93.64
2023-04-03T06:47:17.981Z,94.31
2023-04-03T06:49:50.177Z,93.51
2023-04-03T06:52:18.780Z,92.93
2023-04-03T06:54:52.857Z,92.75
2023-04-03T06:57:22.020Z,91.70
2023-04-03T06:59:50.877Z,91.99
2023-04-03T07:02:20.339Z,90.79
2023-04-03T07:04:49.311Z,93.07
2023-04-03T07:07:19.071Z,92.88
2023-04-03T07:09:50.634Z,90.61
2023-04-03T07:12:24.275Z,89.63
2023-04-03T07:14:53.009Z,88.99
2023-04-03T07:17:22.294Z,89.37
2023-04-03T07:19:51.668Z,89.14
2023-04-03T07:22:20.773Z,89.53
2023-04-03T07:24:52.576Z,89.17
2023-04-03T07:27:21.564Z,87.33
2023-04-03T07:29:52.963Z,85.76
2023-04-03T07:32:22.831Z,85.26
2023-04-03T07:34:54.179Z,86.03
2023-04-03T07:37:23.584Z,85.98
2023-04-03T07:39:53.877Z,84.59
2023-04-03T07:42:22.887Z,83.55
2023-04-03T07:44:52.835Z,84.80
2023-04-03T07:47:28.480Z,81.08
2023-04-03T07:49:58.449Z,82.15
2023-04-03T07:52:27.429Z,83.97
2023-04-03T07:54:57.420Z,84.86
2023-04-03T07:57:27.894Z,86.75
2023-04-03T07:59:57.278Z,86.31
2023-04-03T08:02:33.243Z,87.02
2023-04-03T08:05:02.890Z,86.50
2023-04-03T08:07:32.119Z,79.69
2023-04-03T08:10:06.324Z,83.51
2023-04-03T08:12:34.756Z,81.92
2023-04-03T08:15:03.601Z,82.69
2023-04-03T08:17:32.451Z,80.64
2023-04-03T08:20:04.735Z,80.73
2023-04-03T08:22:33.531Z,80.80
2023-04-03T08:25:05.234Z,80.09
2023-04-03T08:27:36.319Z,76.18
2023-04-03T08:30:05.880Z,77.67
2023-04-03T08:32:37.202Z,76.95
2023-04-03T08:35:06.075Z,77.75
2023-04-03T08:37:37.536Z,78.40
2023-04-03T08:40:13.840Z,81.41
2023-04-03T08:42:52.353Z,82.00
2023-04-03T08:45:27.942Z,80.92
2023-04-03T08:48:02.516Z,81.95
2023-04-03T08:50:36.411Z,82.36
2023-04-03T08:53:07.920Z,81.84
2023-04-03T08:55:44.941Z,81.99
2023-04-03T08:58:16.870Z,79.63
2023-04-03T09:00:49.698Z,80.54
2023-04-03T09:03:20.241Z,80.86
2023-04-03T09:05:51.631Z,80.92
2023-04-03T09:08:28.127Z,80.74
2023-04-03T09:11:09.868Z,79.52
2023-04-03T09:13:46.596Z,78.44
2023-04-03T09:16:23.938Z,79.54
2023-04-03T09:18:57.429Z,78.71
2023-04-03T09:21:29.147Z,80.30
2023-04-03T09:24:01.877Z,79.04
2023-04-03T09:26:36.554Z,79.87
2023-04-03T09:29:08.878Z,78.86
2023-04-03T09:31:41.857Z,78.40
2023-04-03T09:34:18.552Z,77.14
2023-04-03T09:36:49.072Z,77.84
2023-04-03T09:39:19.814Z,79.25
2023-04-03T09:42:01.401Z,80.92
2023-04-03T09:44:32.169Z,80.68
2023-04-03T09:47:01.729Z,80.90
2023-04-03T09:49:30.641Z,83.20
2023-04-03T09:51:59.527Z,84.03
2023-04-03T09:54:43.861Z,82.64
2023-04-03T09:57:16.036Z,81.16
2023-04-03T09:59:48.847Z,83.38
2023-04-03T10:02:32.461Z,81.81
2023-04-03T10:05:09.417Z,81.78
2023-04-03T10:07:41.302Z,83.60
2023-04-03T10:10:24.044Z,86.36
2023-04-03T10:13:06.684Z,87.99
2023-04-03T10:15:39.152Z,88.67
2023-04-03T10:18:23.959Z,86.72
2023-04-03T10:20:54.707Z,87.46
2023-04-03T10:23:28.037Z,86.74
2023-04-03T10:26:13.999Z,86.83
2023-04-03T10:28:49.315Z,85.31
2023-04-03T10:31:24.094Z,83.60
2023-04-03T10:33:59.578Z,83.24
2023-04-03T10:36:38.948Z,79.12
2023-04-03T10:39:15.198Z,66.30
2023-04-03T10:41:54.161Z,65.32
2023-04-03T10:44:35.055Z,66.94
2023-04-03T10:47:07.941Z,69.14
2023-04-03T10:49:59.305Z,68.04
2023-04-03T10:52:33.906Z,73.39
2023-04-03T10:55:10.361Z,80.44
2023-04-03T10:57:39.889Z,82.48
2023-04-03T11:00:20.162Z,82.52
2023-04-03T11:02:54.322Z,82.39
2023-04-03T11:05:31.179Z,86.14
2023-04-03T11:08:04.408Z,85.47
2023-04-03T11:10:39.149Z,83.98
2023-04-03T11:13:13.544Z,80.78
2023-04-03T11:15:46.582Z,82.46
2023-04-03T11:18:20.865Z,82.87
2023-04-03T11:21:02.243Z,85.84
2023-04-03T11:23:45.766Z,87.33
2023-04-03T11:26:19.886Z,87.66
2023-04-03T11:28:48.969Z,84.45
2023-04-03T11:31:32.560Z,84.92
2023-04-03T11:34:08.409Z,81.71
2023-04-03T11:36:43.513Z,79.90
2023-04-03T11:39:23.772Z,76.71
2023-04-03T11:42:00.264Z,72.55
2023-04-03T11:44:38.958Z,71.55
2023-04-03T11:47:10.203Z,70.12
2023-04-03T11:49:56.640Z,71.98
2023-04-03T11:53:04.802Z,69.53
2023-04-03T11:55:57.773Z,65.32
2023-04-03T11:58:33.869Z,61.27
2023-04-03T12:01:07.320Z,56.48
2023-04-03T12:04:08.920Z,56.42
2023-04-03T12:07:00.101Z,56.58
2023-04-03T12:09:37.534Z,55.52
2023-04-03T12:12:25.244Z,58.34
2023-04-03T12:14:55.051Z,60.00
2023-04-03T12:17:26.490Z,58.59
2023-04-03T12:19:56.696Z,56.96
2023-04-03T12:22:27.425Z,59.54
2023-04-03T12:24:56.424Z,58.30
2023-04-03T12:27:31.512Z,59.80
2023-04-03T12:30:06.074Z,56.51
2023-04-03T12:32:46.623Z,55.20
2023-04-03T12:35:24.670Z,55.01
2023-04-03T12:38:19.797Z,51.21
2023-04-03T12:40:53.695Z,56.52
2023-04-03T12:43:39.843Z,55.34
2023-04-03T12:46:17.519Z,57.12
2023-04-03T12:48:51.626Z,58.10
2023-04-03T12:51:24.058Z,58.98
2023-04-03T12:53:54.374Z,55.72
2023-04-03T12:56:26.260Z,56.18
2023-04-03T12:58:56.024Z,56.39
2023-04-03T13:01:26.204Z,54.03
2023-04-03T13:03:57.139Z,55.64
2023-04-03T13:06:31.362Z,57.39
2023-04-03T13:09:02.891Z,57.11
2023-04-03T13:11:35.306Z,56.29
2023-04-03T13:14:06.784Z,56.27
2023-04-03T13:16:36.730Z,51.59
2023-04-03T13:19:05.584Z,50.57
2023-04-03T13:21:36.631Z,51.28
2023-04-03T13:24:15.274Z,51.07
2023-04-03T13:26:51.077Z,49.77
2023-04-03T13:29:31.021Z,51.44
2023-04-03T13:32:03.083Z,53.10
2023-04-03T13:34:38.096Z,47.41
2023-04-03T13:37:09.321Z,50.89
2023-04-03T13:39:39.829Z,51.12
2023-04-03T13:42:19.305Z,51.53
2023-04-03T13:44:48.484Z,50.76
2023-04-03T13:47:20.345Z,51.44
2023-04-03T13:50:13.112Z,49.14
2023-04-03T13:52:48.197Z,49.67
2023-04-03T13:55:26.778Z,49.94
2023-04-03T13:58:01.922Z,44.06
2023-04-03T14:00:34.208Z,47.49
2023-04-03T14:03:03.871Z,47.28
2023-04-03T14:05:33.435Z,45.17
2023-04-03T14:08:04.825Z,49.54
2023-04-03T14:10:37.434Z,49.15
2023-04-03T14:13:08.276Z,49.85
2023-04-03T14:15:39.544Z,52.37
2023-04-03T14:18:08.952Z,51.41
2023-04-03T14:20:40.939Z,52.18
2023-04-03T14:23:13.462Z,52.39
2023-04-03T14:25:44.190Z,49.27
2023-04-03T14:28:20.384Z,53.13
2023-04-03T14:30:51.280Z,50.76
2023-04-03T14:33:23.790Z,46.94
2023-04-03T14:35:55.060Z,47.98
2023-04-03T14:38:29.363Z,50.04
2023-04-03T14:41:03.631Z,50.65
2023-04-03T14:43:44.222Z,50.50
2023-04-03T14:46:16.531Z,50.26
2023-04-03T14:48:46.198Z,51.01
2023-04-03T14:51:18.128Z,51.67
2023-04-03T14:53:48.691Z,48.36
2023-04-03T14:56:20.621Z,51.53
2023-04-03T14:58:54.685Z,49.14
2023-04-03T15:01:32.726Z,50.80
2023-04-03T15:04:01.683Z,50.28
2023-04-03T15:06:30.863Z,51.50
2023-04-03T15:09:04.327Z,52.50
2023-04-03T15:11:32.800Z,52.65
2023-04-03T15:14:01.304Z,53.28
2023-04-03T15:16:30.443Z,52.05
2023-04-03T15:18:59.185Z,55.09
2023-04-03T15:21:29.717Z,53.28
2023-04-03T15:23:59.201Z,54.36
2023-04-03T15:26:31.058Z,54.32
2023-04-03T15:29:00.762Z,50.80
2023-04-03T15:31:30.155Z,53.68
2023-04-03T15:34:01.794Z,51.64
2023-04-03T15:36:34.435Z,50.40
2023-04-03T15:39:07.047Z,50.05
2023-04-03T15:41:37.685Z,51.15
2023-04-03T15:44:06.339Z,51.52
2023-04-03T15:46:35.669Z,51.34
2023-04-03T15:49:04.342Z,52.36
2023-04-03T15:51:36.143Z,51.61
2023-04-03T15:54:07.741Z,53.83
2023-04-03T15:56:38.157Z,53.07
2023-04-03T15:59:06.780Z,53.33
2023-04-03T16:01:38.277Z,52.39
2023-04-03T16:04:07.512Z,53.96
2023-04-03T16:06:36.714Z,56.35
2023-04-03T16:09:06.858Z,54.08
2023-04-03T16:11:40.378Z,55.91
2023-04-03T16:14:12.783Z,55.82
2023-04-03T16:16:42.195Z,55.71
2023-04-03T16:19:11.868Z,55.68
2023-04-03T16:21:40.545Z,55.65
2023-04-03T16:24:09.345Z,55.62
2023-04-03T16:26:39.246Z,56.41
2023-04-03T16:29:08.671Z,55.53
2023-04-03T16:31:40.222Z,55.54
2023-04-03T16:34:09.661Z,55.72
2023-04-03T16:36:39.112Z,55.04
2023-04-03T16:39:07.432Z,55.20
2023-04-03T16:41:36.257Z,55.49
2023-04-03T16:44:08.372Z,57.04
2023-04-03T16:46:37.845Z,54.68
2023-04-03T16:49:06.713Z,55.79
2023-04-03T16:51:36.726Z,54.37
2023-04-03T16:54:05.763Z,56.55
2023-04-03T16:56:37.201Z,58.30
2023-04-03T16:59:07.322Z,57.04
2023-04-03T17:01:38.598Z,58.92
2023-04-03T17:04:08.259Z,58.31
2023-04-03T17:06:40.401Z,58.08
2023-04-03T17:09:12.946Z,59.27
2023-04-03T17:11:46.294Z,57.38
2023-04-03T17:14:19.521Z,57.63
2023-04-03T17:16:48.708Z,57.58
2023-04-03T17:19:18.131Z,59.61
2023-04-03T17:21:47.658Z,59.27
2023-04-03T17:24:16.684Z,59.14
2023-04-03T17:26:45.677Z,59.00
2023-04-03T17:29:14.954Z,60.52
2023-04-03T17:31:48.048Z,58.88
2023-04-03T17:34:16.748Z,61.01
2023-04-03T17:36:48.742Z,61.43
2023-04-03T17:39:21.743Z,60.54
2023-04-03T17:41:51.201Z,60.53
2023-04-03T17:44:23.618Z,60.09
2023-04-03T17:46:53.887Z,60.63
2023-04-03T17:49:22.754Z,60.58
2023-04-03T17:51:51.501Z,60.53
2023-04-03T17:54:20.283Z,60.41
2023-04-03T17:56:49.378Z,60.98
2023-04-03T17:59:18.433Z,59.88
2023-04-03T18:01:51.482Z,61.08
2023-04-03T18:04:23.146Z,61.65
2023-04-03T18:06:54.293Z,61.22
2023-04-03T18:09:31.836Z,61.80
2023-04-03T18:12:03.008Z,62.13
2023-04-03T18:14:32.242Z,62.94
2023-04-03T18:17:01.920Z,62.28
2023-04-03T18:19:32.060Z,60.84
2023-04-03T18:22:05.126Z,61.65
2023-04-03T18:24:35.230Z,61.67
2023-04-03T18:27:06.296Z,61.83
2023-04-03T18:29:37.739Z,62.53
2023-04-03T18:32:09.866Z,62.05
2023-04-03T18:34:40.406Z,63.18
2023-04-03T18:37:12.592Z,62.57
2023-04-03T18:39:41.503Z,61.64
2023-04-03T18:42:17.159Z,59.90
2023-04-03T18:44:48.366Z,60.54
2023-04-03T18:47:22.698Z,60.68
2023-04-03T18:49:52.707Z,60.84
2023-04-03T18:52:22.110Z,61.08
2023-04-03T18:54:50.820Z,61.22
2023-04-03T18:57:19.765Z,61.23
2023-04-03T18:59:48.763Z,60.30
2023-04-03T19:02:27.743Z,60.31
2023-04-03T19:04:59.347Z,60.01
2023-04-03T19:07:28.370Z,60.96
2023-04-03T19:10:01.174Z,59.32
2023-04-03T19:12:30.248Z,60.26
2023-04-03T19:14:59.061Z,59.78
2023-04-03T19:17:28.864Z,60.67
2023-04-03T19:20:06.971Z,60.93
2023-04-03T19:22:35.563Z,60.00
2023-04-03T19:25:04.997Z,59.66
2023-04-03T19:27:37.820Z,59.65
2023-04-03T19:30:08.038Z,59.42
2023-04-03T19:32:39.077Z,60.83
2023-04-03T19:35:12.366Z,60.40
2023-04-03T19:37:44.513Z,59.92
2023-04-03T19:40:13.971Z,59.55
2023-04-03T19:42:43.266Z,58.39
2023-04-03T19:45:13.022Z,58.58
2023-04-03T19:47:48.122Z,58.39
2023-04-03T19:50:20.852Z,58.35
2023-04-03T19:52:52.378Z,59.35
2023-04-03T19:55:24.348Z,58.25
2023-04-03T19:57:54.261Z,59.39
2023-04-03T20:00:23.198Z,59.07
2023-04-03T20:02:52.581Z,59.27
2023-04-03T20:05:23.586Z,58.67
2023-04-03T20:07:54.507Z,58.77
2023-04-03T20:10:25.974Z,59.24
2023-04-03T20:12:54.920Z,59.59
2023-04-03T20:15:24.050Z,58.56
2023-04-03T20:17:53.527Z,58.96
2023-04-03T20:20:27.879Z,58.96
2023-04-03T20:22:59.529Z,58.83
2023-04-03T20:25:48.030Z,59.38
2023-04-03T20:28:20.514Z,60.03
2023-04-03T20:30:51.562Z,60.20
2023-04-03T20:33:21.666Z,60.54
2023-04-03T20:35:51.923Z,60.43
2023-04-03T20:38:21.905Z,61.00
2023-04-03T20:40:52.629Z,60.85
2023-04-03T20:43:23.538Z,59.96
2023-04-03T20:45:53.664Z,60.45
2023-04-03T20:48:22.610Z,60.18
2023-04-03T20:50:53.218Z,59.82
2023-04-03T20:53:24.519Z,60.16
2023-04-03T20:55:56.895Z,59.55
2023-04-03T20:58:26.866Z,60.13
2023-04-03T21:00:56.781Z,60.44
2023-04-03T21:03:27.041Z,60.23
2023-04-03T21:05:59.985Z,60.07
2023-04-03T21:09:06.157Z,60.02
2023-04-03T21:12:12.510Z,60.97
2023-04-03T21:15:20.416Z,61.04
2023-04-03T21:18:17.316Z,59.96
2023-04-03T21:20:47.890Z,59.70
2023-04-03T21:23:17.418Z,59.71
2023-04-03T21:25:46.108Z,60.25
2023-04-03T21:28:16.007Z,59.62
2023-04-03T21:30:46.214Z,57.31
2023-04-03T21:33:17.144Z,58.81
2023-04-03T21:35:58.072Z,57.93
2023-04-03T21:38:27.791Z,57.81
2023-04-03T21:40:58.426Z,56.85
2023-04-03T21:43:27.298Z,56.97
2023-04-03T21:45:56.611Z,56.03
2023-04-03T21:48:31.078Z,55.72
2023-04-03T21:51:07.134Z,56.09
2023-04-03T21:53:35.918Z,54.03
2023-04-03T21:56:09.221Z,54.75
2023-04-03T21:58:38.248Z,54.13
2023-04-03T22:01:12.198Z,55.49
2023-04-03T22:03:43.938Z,54.93
2023-04-03T22:06:14.143Z,54.66
2023-04-03T22:08:43.412Z,55.26
2023-04-03T22:11:16.857Z,55.00
2023-04-03T22:13:46.116Z,54.25
2023-04-03T22:16:17.078Z,53.78
2023-04-03T22:18:47.300Z,52.80
2023-04-03T22:21:15.912Z,54.10
2023-04-03T22:23:44.660Z,54.14
2023-04-03T22:26:16.131Z,55.03
2023-04-03T22:28:46.065Z,54.37
2023-04-03T22:31:16.684Z,54.64
2023-04-03T22:33:47.401Z,54.76
2023-04-03T22:36:16.370Z,55.65
2023-04-03T22:38:47.034Z,56.07
2023-04-03T22:41:15.842Z,56.38
2023-04-03T22:46:55.342Z,56.79
2023-04-03T22:49:26.009Z,57.92
2023-04-03T22:51:54.765Z,59.98
2023-04-03T22:54:23.478Z,60.34
2023-04-03T22:56:51.928Z,61.22
2023-04-03T22:59:20.618Z,63.23
2023-04-03T23:01:49.120Z,62.88
2023-04-03T23:04:18.798Z,63.12
2023-04-03T23:06:48.666Z,62.88
2023-04-03T23:09:17.511Z,63.27
2023-04-03T23:11:48.374Z,64.01
2023-04-03T23:14:17.300Z,64.94
2023-04-03T23:16:47.084Z,65.14
2023-04-03T23:19:16.087Z,65.32
2023-04-03T23:21:46.159Z,64.70
2023-04-03T23:24:17.054Z,65.15
2023-04-03T23:26:45.753Z,65.57
2023-04-03T23:29:14.578Z,65.47
2023-04-03T23:31:45.964Z,65.52
2023-04-03T23:34:16.799Z,66.93
2023-04-03T23:36:45.896Z,68.58
2023-04-03T23:39:20.827Z,67.27
2023-04-03T23:41:49.752Z,67.72
2023-04-03T23:44:18.481Z,67.82
2023-04-03T23:46:47.604Z,68.71
2023-04-03T23:49:16.818Z,69.98
2023-04-03T23:51:45.840Z,69.07
2023-04-03T23:54:15.963Z,69.21
2023-04-03T23:56:44.512Z,68.97
2023-04-03T23:59:13.966Z,70.18
